sensor_id;sensor_type;location;lat;lon;timestamp;P1;durP1;ratioP1;P2;durP2;ratioP2
67757;SDS011;54562;47.620;18.786;2022-08-11T00:02:32;4.20;;;1.90;;
67757;SDS011;54562;47.620;18.786;2022-08-11T00:05:47;5.00;;;1.90;;
67757;SDS011;54562;47.620;18.786;2022-08-11T00:09:02;6.20;;;1.90;;
67757;SDS011;54562;47.620;18.786;2022-08-11T00:12:15;5.20;;;2.10;;
67757;SDS011;54562;47.620;18.786;2022-08-11T00:15:24;4.70;;;2.10;;
67757;SDS011;54562;47.620;18.786;2022-08-11T00:18:44;4.60;;;2.00;;
67757;SDS011;54562;47.620;18.786;2022-08-11T00:21:55;4.70;;;2.10;;
67757;SDS011;54562;47.620;18.786;2022-08-11T00:25:13;4.30;;;1.90;;
67757;SDS011;54562;47.620;18.786;2022-08-11T00:28:28;4.50;;;2.00;;
67757;SDS011;54562;47.620;18.786;2022-08-11T00:31:37;5.50;;;1.90;;
67757;SDS011;54562;47.620;18.786;2022-08-11T00:34:51;4.20;;;1.90;;
67757;SDS011;54562;47.620;18.786;2022-08-11T00:38:24;5.20;;;2.00;;
67757;SDS011;54562;47.620;18.786;2022-08-11T00:41:37;4.40;;;1.80;;
67757;SDS011;54562;47.620;18.786;2022-08-11T00:44:59;4.70;;;1.80;;
67757;SDS011;54562;47.620;18.786;2022-08-11T00:48:27;4.50;;;1.90;;
67757;SDS011;54562;47.620;18.786;2022-08-11T00:51:49;5.30;;;1.90;;
67757;SDS011;54562;47.620;18.786;2022-08-11T00:55:35;4.20;;;1.90;;
67757;SDS011;54562;47.620;18.786;2022-08-11T00:59:36;5.00;;;1.90;;
67757;SDS011;54562;47.620;18.786;2022-08-11T01:03:16;5.30;;;1.90;;
67757;SDS011;54562;47.620;18.786;2022-08-11T01:06:46;5.10;;;1.90;;
67757;SDS011;54562;47.620;18.786;2022-08-11T01:10:31;4.90;;;1.90;;
67757;SDS011;54562;47.620;18.786;2022-08-11T01:14:28;4.20;;;1.90;;
67757;SDS011;54562;47.620;18.786;2022-08-11T01:18:33;4.20;;;1.80;;
67757;SDS011;54562;47.620;18.786;2022-08-11T01:26:16;5.00;;;1.90;;
67757;SDS011;54562;47.620;18.786;2022-08-11T01:30:22;5.20;;;1.90;;
67757;SDS011;54562;47.620;18.786;2022-08-11T01:42:51;3.90;;;1.60;;
67757;SDS011;54562;47.620;18.786;2022-08-11T01:46:53;3.80;;;1.70;;
67757;SDS011;54562;47.620;18.786;2022-08-11T01:50:15;4.00;;;1.80;;
67757;SDS011;54562;47.620;18.786;2022-08-11T01:53:37;3.80;;;1.60;;
67757;SDS011;54562;47.620;18.786;2022-08-11T01:57:03;4.80;;;1.80;;
67757;SDS011;54562;47.620;18.786;2022-08-11T02:00:28;5.00;;;2.00;;
67757;SDS011;54562;47.620;18.786;2022-08-11T02:03:45;3.20;;;1.60;;
67757;SDS011;54562;47.620;18.786;2022-08-11T02:07:07;4.80;;;1.90;;
67757;SDS011;54562;47.620;18.786;2022-08-11T02:10:25;4.40;;;2.00;;
67757;SDS011;54562;47.620;18.786;2022-08-11T02:13:59;4.90;;;1.90;;
67757;SDS011;54562;47.620;18.786;2022-08-11T02:17:20;4.80;;;1.80;;
67757;SDS011;54562;47.620;18.786;2022-08-11T02:20:46;5.50;;;1.70;;
67757;SDS011;54562;47.620;18.786;2022-08-11T02:24:19;5.30;;;2.00;;
67757;SDS011;54562;47.620;18.786;2022-08-11T02:27:39;4.80;;;1.80;;
67757;SDS011;54562;47.620;18.786;2022-08-11T02:35:03;3.90;;;1.90;;
67757;SDS011;54562;47.620;18.786;2022-08-11T02:38:27;4.40;;;1.80;;
67757;SDS011;54562;47.620;18.786;2022-08-11T02:41:47;4.30;;;1.70;;
67757;SDS011;54562;47.620;18.786;2022-08-11T02:45:51;7.30;;;1.80;;
67757;SDS011;54562;47.620;18.786;2022-08-11T02:49:39;6.50;;;2.10;;
67757;SDS011;54562;47.620;18.786;2022-08-11T02:53:21;5.80;;;2.00;;
67757;SDS011;54562;47.620;18.786;2022-08-11T02:56:44;4.30;;;1.90;;
67757;SDS011;54562;47.620;18.786;2022-08-11T02:59:59;5.10;;;1.90;;
67757;SDS011;54562;47.620;18.786;2022-08-11T03:03:17;4.50;;;1.90;;
67757;SDS011;54562;47.620;18.786;2022-08-11T03:06:40;4.50;;;1.80;;
67757;SDS011;54562;47.620;18.786;2022-08-11T03:09:59;5.80;;;1.90;;
67757;SDS011;54562;47.620;18.786;2022-08-11T03:13:18;6.50;;;2.00;;
67757;SDS011;54562;47.620;18.786;2022-08-11T03:16:57;6.80;;;1.90;;
67757;SDS011;54562;47.620;18.786;2022-08-11T03:20:30;4.20;;;2.00;;
67757;SDS011;54562;47.620;18.786;2022-08-11T03:23:52;8.00;;;2.10;;
67757;SDS011;54562;47.620;18.786;2022-08-11T03:27:09;4.90;;;1.90;;
67757;SDS011;54562;47.620;18.786;2022-08-11T03:30:39;4.70;;;1.80;;
67757;SDS011;54562;47.620;18.786;2022-08-11T03:33:56;4.70;;;1.90;;
67757;SDS011;54562;47.620;18.786;2022-08-11T03:37:33;6.60;;;1.80;;
67757;SDS011;54562;47.620;18.786;2022-08-11T03:41:07;4.70;;;1.90;;
67757;SDS011;54562;47.620;18.786;2022-08-11T03:45:18;3.80;;;1.80;;
67757;SDS011;54562;47.620;18.786;2022-08-11T03:48:39;4.90;;;1.90;;
67757;SDS011;54562;47.620;18.786;2022-08-11T03:51:59;5.10;;;2.00;;
67757;SDS011;54562;47.620;18.786;2022-08-11T03:55:31;4.10;;;1.90;;
67757;SDS011;54562;47.620;18.786;2022-08-11T03:59:19;4.40;;;1.90;;
67757;SDS011;54562;47.620;18.786;2022-08-11T04:07:29;4.20;;;2.00;;
67757;SDS011;54562;47.620;18.786;2022-08-11T04:11:13;7.60;;;2.10;;
67757;SDS011;54562;47.620;18.786;2022-08-11T04:14:44;4.40;;;1.90;;
67757;SDS011;54562;47.620;18.786;2022-08-11T04:22:40;5.70;;;1.90;;
67757;SDS011;54562;47.620;18.786;2022-08-11T04:27:00;5.50;;;2.00;;
67757;SDS011;54562;47.620;18.786;2022-08-11T04:30:29;5.00;;;2.00;;
67757;SDS011;54562;47.620;18.786;2022-08-11T04:34:03;6.10;;;2.00;;
67757;SDS011;54562;47.620;18.786;2022-08-11T04:38:07;5.10;;;1.80;;
67757;SDS011;54562;47.620;18.786;2022-08-11T04:42:04;5.40;;;2.00;;
67757;SDS011;54562;47.620;18.786;2022-08-11T04:45:45;5.00;;;1.90;;
67757;SDS011;54562;47.620;18.786;2022-08-11T04:49:33;7.80;;;2.20;;
67757;SDS011;54562;47.620;18.786;2022-08-11T04:53:37;5.60;;;2.10;;
67757;SDS011;54562;47.620;18.786;2022-08-11T04:57:21;4.90;;;2.20;;
67757;SDS011;54562;47.620;18.786;2022-08-11T05:01:05;5.50;;;2.00;;
67757;SDS011;54562;47.620;18.786;2022-08-11T05:05:02;5.80;;;2.10;;
67757;SDS011;54562;47.620;18.786;2022-08-11T05:09:11;4.90;;;2.10;;
67757;SDS011;54562;47.620;18.786;2022-08-11T05:12:42;6.30;;;1.90;;
67757;SDS011;54562;47.620;18.786;2022-08-11T05:15:55;5.20;;;2.30;;
67757;SDS011;54562;47.620;18.786;2022-08-11T05:19:24;6.90;;;2.40;;
67757;SDS011;54562;47.620;18.786;2022-08-11T05:22:51;5.10;;;2.20;;
67757;SDS011;54562;47.620;18.786;2022-08-11T05:26:18;5.30;;;2.20;;
67757;SDS011;54562;47.620;18.786;2022-08-11T05:29:59;7.50;;;2.20;;
67757;SDS011;54562;47.620;18.786;2022-08-11T05:33:35;9.20;;;2.30;;
67757;SDS011;54562;47.620;18.786;2022-08-11T05:37:12;5.00;;;2.20;;
67757;SDS011;54562;47.620;18.786;2022-08-11T05:40:32;5.20;;;2.00;;
67757;SDS011;54562;47.620;18.786;2022-08-11T05:44:04;5.00;;;1.90;;
67757;SDS011;54562;47.620;18.786;2022-08-11T05:47:32;6.10;;;2.10;;
67757;SDS011;54562;47.620;18.786;2022-08-11T05:51:00;6.40;;;2.40;;
67757;SDS011;54562;47.620;18.786;2022-08-11T05:54:34;5.20;;;1.90;;
67757;SDS011;54562;47.620;18.786;2022-08-11T05:58:03;6.90;;;2.20;;
67757;SDS011;54562;47.620;18.786;2022-08-11T06:01:20;11.60;;;2.60;;
67757;SDS011;54562;47.620;18.786;2022-08-11T06:04:30;5.30;;;2.20;;
67757;SDS011;54562;47.620;18.786;2022-08-11T06:07:38;6.10;;;2.40;;
67757;SDS011;54562;47.620;18.786;2022-08-11T06:11:00;6.10;;;2.20;;
67757;SDS011;54562;47.620;18.786;2022-08-11T06:14:11;7.40;;;2.20;;
67757;SDS011;54562;47.620;18.786;2022-08-11T06:17:25;4.70;;;2.00;;
67757;SDS011;54562;47.620;18.786;2022-08-11T06:20:48;5.00;;;2.10;;
67757;SDS011;54562;47.620;18.786;2022-08-11T06:23:59;5.40;;;2.10;;
67757;SDS011;54562;47.620;18.786;2022-08-11T06:27:09;5.70;;;2.10;;
67757;SDS011;54562;47.620;18.786;2022-08-11T06:30:33;6.70;;;1.90;;
67757;SDS011;54562;47.620;18.786;2022-08-11T06:33:55;8.80;;;2.10;;
67757;SDS011;54562;47.620;18.786;2022-08-11T06:37:17;7.20;;;2.10;;
67757;SDS011;54562;47.620;18.786;2022-08-11T06:40:34;6.50;;;2.10;;
67757;SDS011;54562;47.620;18.786;2022-08-11T06:43:50;4.40;;;1.90;;
67757;SDS011;54562;47.620;18.786;2022-08-11T06:47:12;4.80;;;1.70;;
67757;SDS011;54562;47.620;18.786;2022-08-11T06:50:24;4.20;;;1.70;;
67757;SDS011;54562;47.620;18.786;2022-08-11T06:53:53;4.80;;;1.80;;
67757;SDS011;54562;47.620;18.786;2022-08-11T06:57:12;4.30;;;1.70;;
67757;SDS011;54562;47.620;18.786;2022-08-11T07:00:41;3.80;;;1.60;;
67757;SDS011;54562;47.620;18.786;2022-08-11T07:03:58;4.70;;;1.70;;
67757;SDS011;54562;47.620;18.786;2022-08-11T07:07:46;4.70;;;1.90;;
67757;SDS011;54562;47.620;18.786;2022-08-11T07:12:01;4.80;;;2.00;;
67757;SDS011;54562;47.620;18.786;2022-08-11T07:15:40;4.10;;;1.60;;
67757;SDS011;54562;47.620;18.786;2022-08-11T07:19:12;4.50;;;1.70;;
67757;SDS011;54562;47.620;18.786;2022-08-11T07:22:45;6.00;;;2.00;;
67757;SDS011;54562;47.620;18.786;2022-08-11T07:26:26;4.10;;;1.80;;
67757;SDS011;54562;47.620;18.786;2022-08-11T07:29:53;6.80;;;2.50;;
67757;SDS011;54562;47.620;18.786;2022-08-11T07:33:03;23.20;;;2.70;;
67757;SDS011;54562;47.620;18.786;2022-08-11T07:36:13;26.10;;;2.50;;
67757;SDS011;54562;47.620;18.786;2022-08-11T07:39:24;6.50;;;1.80;;
67757;SDS011;54562;47.620;18.786;2022-08-11T07:42:34;6.60;;;2.00;;
67757;SDS011;54562;47.620;18.786;2022-08-11T07:45:45;16.70;;;2.30;;
67757;SDS011;54562;47.620;18.786;2022-08-11T07:49:12;5.20;;;1.90;;
67757;SDS011;54562;47.620;18.786;2022-08-11T07:52:38;8.20;;;2.00;;
67757;SDS011;54562;47.620;18.786;2022-08-11T07:55:48;6.90;;;1.90;;
67757;SDS011;54562;47.620;18.786;2022-08-11T07:58:58;6.40;;;2.20;;
67757;SDS011;54562;47.620;18.786;2022-08-11T08:02:28;5.80;;;2.20;;
67757;SDS011;54562;47.620;18.786;2022-08-11T08:05:54;3.70;;;1.60;;
67757;SDS011;54562;47.620;18.786;2022-08-11T08:09:41;5.20;;;1.90;;
67757;SDS011;54562;47.620;18.786;2022-08-11T08:13:08;4.40;;;1.80;;
67757;SDS011;54562;47.620;18.786;2022-08-11T08:16:34;9.50;;;2.00;;
67757;SDS011;54562;47.620;18.786;2022-08-11T08:20:03;5.60;;;1.90;;
67757;SDS011;54562;47.620;18.786;2022-08-11T08:23:15;5.80;;;1.90;;
67757;SDS011;54562;47.620;18.786;2022-08-11T08:26:38;5.80;;;1.70;;
67757;SDS011;54562;47.620;18.786;2022-08-11T08:30:08;4.00;;;1.60;;
67757;SDS011;54562;47.620;18.786;2022-08-11T08:33:35;4.70;;;1.80;;
67757;SDS011;54562;47.620;18.786;2022-08-11T08:36:50;4.20;;;1.70;;
67757;SDS011;54562;47.620;18.786;2022-08-11T08:39:59;5.10;;;1.80;;
67757;SDS011;54562;47.620;18.786;2022-08-11T08:43:11;3.60;;;1.40;;
67757;SDS011;54562;47.620;18.786;2022-08-11T08:46:25;5.80;;;1.70;;
67757;SDS011;54562;47.620;18.786;2022-08-11T08:49:40;3.80;;;1.70;;
67757;SDS011;54562;47.620;18.786;2022-08-11T08:52:57;4.60;;;1.60;;
67757;SDS011;54562;47.620;18.786;2022-08-11T08:56:10;4.30;;;1.70;;
67757;SDS011;54562;47.620;18.786;2022-08-11T08:59:24;3.50;;;1.60;;
67757;SDS011;54562;47.620;18.786;2022-08-11T09:02:53;5.00;;;1.70;;
67757;SDS011;54562;47.620;18.786;2022-08-11T09:09:09;4.10;;;1.50;;
67757;SDS011;54562;47.620;18.786;2022-08-11T09:12:19;4.00;;;1.60;;
67757;SDS011;54562;47.620;18.786;2022-08-11T09:15:43;4.00;;;1.50;;
67757;SDS011;54562;47.620;18.786;2022-08-11T09:18:56;2.70;;;1.50;;
67757;SDS011;54562;47.620;18.786;2022-08-11T09:22:05;3.80;;;1.50;;
67757;SDS011;54562;47.620;18.786;2022-08-11T09:25:32;4.70;;;1.60;;
67757;SDS011;54562;47.620;18.786;2022-08-11T09:28:59;3.50;;;1.50;;
67757;SDS011;54562;47.620;18.786;2022-08-11T09:32:09;3.80;;;1.50;;
67757;SDS011;54562;47.620;18.786;2022-08-11T09:35:19;3.80;;;1.70;;
67757;SDS011;54562;47.620;18.786;2022-08-11T09:38:28;5.40;;;1.70;;
67757;SDS011;54562;47.620;18.786;2022-08-11T09:41:54;4.80;;;1.50;;
67757;SDS011;54562;47.620;18.786;2022-08-11T09:45:08;4.00;;;1.40;;
67757;SDS011;54562;47.620;18.786;2022-08-11T09:48:19;4.70;;;1.60;;
67757;SDS011;54562;47.620;18.786;2022-08-11T09:51:31;4.00;;;1.50;;
67757;SDS011;54562;47.620;18.786;2022-08-11T09:54:47;4.50;;;1.30;;
67757;SDS011;54562;47.620;18.786;2022-08-11T09:57:56;7.90;;;1.60;;
67757;SDS011;54562;47.620;18.786;2022-08-11T10:01:46;2.90;;;1.40;;
67757;SDS011;54562;47.620;18.786;2022-08-11T10:04:56;4.00;;;1.50;;
67757;SDS011;54562;47.620;18.786;2022-08-11T10:08:20;3.90;;;1.40;;
67757;SDS011;54562;47.620;18.786;2022-08-11T10:11:32;14.30;;;1.80;;
67757;SDS011;54562;47.620;18.786;2022-08-11T10:14:44;5.30;;;1.40;;
67757;SDS011;54562;47.620;18.786;2022-08-11T10:18:16;4.30;;;1.60;;
67757;SDS011;54562;47.620;18.786;2022-08-11T10:21:49;3.90;;;1.60;;
67757;SDS011;54562;47.620;18.786;2022-08-11T10:25:14;3.70;;;1.50;;
67757;SDS011;54562;47.620;18.786;2022-08-11T10:28:41;4.30;;;1.60;;
67757;SDS011;54562;47.620;18.786;2022-08-11T10:36:01;5.70;;;1.60;;
67757;SDS011;54562;47.620;18.786;2022-08-11T10:39:21;5.10;;;1.60;;
67757;SDS011;54562;47.620;18.786;2022-08-11T10:42:32;3.90;;;1.50;;
67757;SDS011;54562;47.620;18.786;2022-08-11T10:46:02;16.00;;;2.00;;
67757;SDS011;54562;47.620;18.786;2022-08-11T10:49:34;8.90;;;1.70;;
67757;SDS011;54562;47.620;18.786;2022-08-11T10:52:43;3.80;;;1.60;;
67757;SDS011;54562;47.620;18.786;2022-08-11T10:59:38;4.00;;;1.50;;
67757;SDS011;54562;47.620;18.786;2022-08-11T11:02:47;3.70;;;1.50;;
67757;SDS011;54562;47.620;18.786;2022-08-11T11:06:24;5.00;;;1.50;;
67757;SDS011;54562;47.620;18.786;2022-08-11T11:09:42;6.30;;;1.60;;
67757;SDS011;54562;47.620;18.786;2022-08-11T11:12:55;5.90;;;1.70;;
67757;SDS011;54562;47.620;18.786;2022-08-11T11:16:23;3.50;;;1.60;;
67757;SDS011;54562;47.620;18.786;2022-08-11T11:19:52;6.10;;;1.70;;
67757;SDS011;54562;47.620;18.786;2022-08-11T11:23:05;3.60;;;1.50;;
67757;SDS011;54562;47.620;18.786;2022-08-11T11:26:31;3.90;;;1.50;;
67757;SDS011;54562;47.620;18.786;2022-08-11T11:29:58;3.50;;;1.40;;
67757;SDS011;54562;47.620;18.786;2022-08-11T11:33:14;3.30;;;1.50;;
67757;SDS011;54562;47.620;18.786;2022-08-11T11:36:34;4.30;;;1.50;;
67757;SDS011;54562;47.620;18.786;2022-08-11T11:39:51;4.40;;;1.50;;
67757;SDS011;54562;47.620;18.786;2022-08-11T11:43:01;4.60;;;1.50;;
67757;SDS011;54562;47.620;18.786;2022-08-11T11:46:10;5.40;;;1.70;;
67757;SDS011;54562;47.620;18.786;2022-08-11T11:49:21;4.00;;;1.40;;
67757;SDS011;54562;47.620;18.786;2022-08-11T11:52:32;4.30;;;1.60;;
67757;SDS011;54562;47.620;18.786;2022-08-11T11:55:43;4.10;;;1.50;;
67757;SDS011;54562;47.620;18.786;2022-08-11T11:58:53;4.50;;;1.40;;
67757;SDS011;54562;47.620;18.786;2022-08-11T12:02:19;3.80;;;1.50;;
67757;SDS011;54562;47.620;18.786;2022-08-11T12:05:28;4.60;;;1.60;;
67757;SDS011;54562;47.620;18.786;2022-08-11T12:08:40;3.70;;;1.50;;
67757;SDS011;54562;47.620;18.786;2022-08-11T12:15:22;8.10;;;1.60;;
67757;SDS011;54562;47.620;18.786;2022-08-11T12:18:52;9.90;;;2.00;;
67757;SDS011;54562;47.620;18.786;2022-08-11T12:22:04;4.90;;;1.50;;
67757;SDS011;54562;47.620;18.786;2022-08-11T12:25:30;13.60;;;1.80;;
67757;SDS011;54562;47.620;18.786;2022-08-11T12:29:19;3.40;;;1.30;;
67757;SDS011;54562;47.620;18.786;2022-08-11T12:32:32;8.20;;;1.60;;
67757;SDS011;54562;47.620;18.786;2022-08-11T12:35:43;4.40;;;1.50;;
67757;SDS011;54562;47.620;18.786;2022-08-11T12:39:06;5.80;;;1.50;;
67757;SDS011;54562;47.620;18.786;2022-08-11T12:42:36;3.70;;;1.50;;
67757;SDS011;54562;47.620;18.786;2022-08-11T12:46:05;3.80;;;1.50;;
67757;SDS011;54562;47.620;18.786;2022-08-11T12:49:18;8.10;;;1.50;;
67757;SDS011;54562;47.620;18.786;2022-08-11T12:52:51;5.20;;;1.20;;
67757;SDS011;54562;47.620;18.786;2022-08-11T12:56:04;3.10;;;1.30;;
67757;SDS011;54562;47.620;18.786;2022-08-11T12:59:32;7.40;;;1.60;;
67757;SDS011;54562;47.620;18.786;2022-08-11T13:03:02;3.40;;;1.40;;
67757;SDS011;54562;47.620;18.786;2022-08-11T13:06:30;3.60;;;1.60;;
67757;SDS011;54562;47.620;18.786;2022-08-11T13:09:42;4.60;;;1.70;;
67757;SDS011;54562;47.620;18.786;2022-08-11T13:12:51;3.60;;;1.70;;
67757;SDS011;54562;47.620;18.786;2022-08-11T13:16:00;7.50;;;1.60;;
67757;SDS011;54562;47.620;18.786;2022-08-11T13:19:08;4.90;;;1.60;;
67757;SDS011;54562;47.620;18.786;2022-08-11T13:22:18;5.60;;;1.70;;
67757;SDS011;54562;47.620;18.786;2022-08-11T13:25:30;3.80;;;1.60;;
67757;SDS011;54562;47.620;18.786;2022-08-11T13:28:39;5.80;;;1.70;;
67757;SDS011;54562;47.620;18.786;2022-08-11T13:31:48;3.80;;;1.60;;
67757;SDS011;54562;47.620;18.786;2022-08-11T13:34:57;3.90;;;1.70;;
67757;SDS011;54562;47.620;18.786;2022-08-11T13:38:06;4.30;;;1.50;;
67757;SDS011;54562;47.620;18.786;2022-08-11T13:41:24;12.90;;;1.70;;
67757;SDS011;54562;47.620;18.786;2022-08-11T13:44:44;7.50;;;1.60;;
67757;SDS011;54562;47.620;18.786;2022-08-11T13:47:56;8.20;;;1.70;;
67757;SDS011;54562;47.620;18.786;2022-08-11T13:51:05;4.50;;;1.80;;
67757;SDS011;54562;47.620;18.786;2022-08-11T13:54:40;4.20;;;1.50;;
67757;SDS011;54562;47.620;18.786;2022-08-11T13:57:52;3.30;;;1.30;;
67757;SDS011;54562;47.620;18.786;2022-08-11T14:01:22;3.50;;;1.50;;
67757;SDS011;54562;47.620;18.786;2022-08-11T14:04:57;3.90;;;1.50;;
67757;SDS011;54562;47.620;18.786;2022-08-11T14:08:16;3.80;;;1.50;;
67757;SDS011;54562;47.620;18.786;2022-08-11T14:11:43;4.20;;;1.60;;
67757;SDS011;54562;47.620;18.786;2022-08-11T14:15:30;4.10;;;1.60;;
67757;SDS011;54562;47.620;18.786;2022-08-11T14:18:44;3.30;;;1.60;;
67757;SDS011;54562;47.620;18.786;2022-08-11T14:21:55;3.40;;;1.50;;
67757;SDS011;54562;47.620;18.786;2022-08-11T14:25:13;4.40;;;1.70;;
67757;SDS011;54562;47.620;18.786;2022-08-11T14:28:21;4.00;;;1.50;;
67757;SDS011;54562;47.620;18.786;2022-08-11T14:31:39;4.90;;;1.50;;
67757;SDS011;54562;47.620;18.786;2022-08-11T14:34:52;3.80;;;1.50;;
67757;SDS011;54562;47.620;18.786;2022-08-11T14:38:02;5.50;;;1.50;;
67757;SDS011;54562;47.620;18.786;2022-08-11T14:41:11;4.30;;;1.50;;
67757;SDS011;54562;47.620;18.786;2022-08-11T14:44:38;3.60;;;1.30;;
67757;SDS011;54562;47.620;18.786;2022-08-11T14:48:09;3.70;;;1.40;;
67757;SDS011;54562;47.620;18.786;2022-08-11T14:51:18;3.10;;;1.40;;
67757;SDS011;54562;47.620;18.786;2022-08-11T14:54:30;3.20;;;1.40;;
67757;SDS011;54562;47.620;18.786;2022-08-11T14:57:56;4.90;;;1.50;;
67757;SDS011;54562;47.620;18.786;2022-08-11T15:01:06;3.70;;;1.50;;
67757;SDS011;54562;47.620;18.786;2022-08-11T15:04:28;5.20;;;1.60;;
67757;SDS011;54562;47.620;18.786;2022-08-11T15:07:44;5.80;;;1.70;;
67757;SDS011;54562;47.620;18.786;2022-08-11T15:10:53;3.90;;;1.50;;
67757;SDS011;54562;47.620;18.786;2022-08-11T15:17:12;5.30;;;1.60;;
67757;SDS011;54562;47.620;18.786;2022-08-11T15:23:46;4.70;;;1.50;;
67757;SDS011;54562;47.620;18.786;2022-08-11T15:27:16;9.00;;;1.80;;
67757;SDS011;54562;47.620;18.786;2022-08-11T15:30:45;3.10;;;1.40;;
67757;SDS011;54562;47.620;18.786;2022-08-11T15:34:18;4.00;;;1.50;;
67757;SDS011;54562;47.620;18.786;2022-08-11T15:37:51;3.00;;;1.40;;
67757;SDS011;54562;47.620;18.786;2022-08-11T15:41:06;4.40;;;1.60;;
67757;SDS011;54562;47.620;18.786;2022-08-11T15:48:44;3.40;;;1.60;;
67757;SDS011;54562;47.620;18.786;2022-08-11T15:51:59;4.20;;;1.40;;
67757;SDS011;54562;47.620;18.786;2022-08-11T16:07:32;3.00;;;1.20;;
67757;SDS011;54562;47.620;18.786;2022-08-11T16:10:44;3.10;;;1.30;;
67757;SDS011;54562;47.620;18.786;2022-08-11T16:13:56;2.60;;;1.20;;
67757;SDS011;54562;47.620;18.786;2022-08-11T16:17:25;3.70;;;1.30;;
67757;SDS011;54562;47.620;18.786;2022-08-11T16:20:36;3.90;;;1.30;;
67757;SDS011;54562;47.620;18.786;2022-08-11T16:23:47;5.70;;;1.40;;
67757;SDS011;54562;47.620;18.786;2022-08-11T16:26:57;3.20;;;1.30;;
67757;SDS011;54562;47.620;18.786;2022-08-11T16:30:18;11.30;;;1.60;;
67757;SDS011;54562;47.620;18.786;2022-08-11T16:33:27;5.10;;;1.50;;
67757;SDS011;54562;47.620;18.786;2022-08-11T16:36:55;5.70;;;1.50;;
67757;SDS011;54562;47.620;18.786;2022-08-11T16:40:24;3.30;;;1.30;;
67757;SDS011;54562;47.620;18.786;2022-08-11T16:43:37;3.20;;;1.40;;
67757;SDS011;54562;47.620;18.786;2022-08-11T16:47:07;6.20;;;1.50;;
67757;SDS011;54562;47.620;18.786;2022-08-11T16:50:20;11.10;;;1.60;;
67757;SDS011;54562;47.620;18.786;2022-08-11T16:53:30;3.20;;;1.40;;
67757;SDS011;54562;47.620;18.786;2022-08-11T16:57:01;4.40;;;1.40;;
67757;SDS011;54562;47.620;18.786;2022-08-11T17:00:25;2.60;;;1.30;;
67757;SDS011;54562;47.620;18.786;2022-08-11T17:03:35;2.80;;;1.40;;
67757;SDS011;54562;47.620;18.786;2022-08-11T17:07:06;5.10;;;1.40;;
67757;SDS011;54562;47.620;18.786;2022-08-11T17:10:50;5.70;;;1.60;;
67757;SDS011;54562;47.620;18.786;2022-08-11T17:14:23;3.30;;;1.40;;
67757;SDS011;54562;47.620;18.786;2022-08-11T17:17:40;4.80;;;1.40;;
67757;SDS011;54562;47.620;18.786;2022-08-11T17:20:51;4.60;;;1.50;;
67757;SDS011;54562;47.620;18.786;2022-08-11T17:24:03;7.40;;;1.60;;
67757;SDS011;54562;47.620;18.786;2022-08-11T17:27:15;6.00;;;1.60;;
67757;SDS011;54562;47.620;18.786;2022-08-11T17:30:25;3.70;;;1.60;;
67757;SDS011;54562;47.620;18.786;2022-08-11T17:33:49;4.60;;;1.70;;
67757;SDS011;54562;47.620;18.786;2022-08-11T17:37:17;3.70;;;1.60;;
67757;SDS011;54562;47.620;18.786;2022-08-11T17:40:27;3.50;;;1.60;;
67757;SDS011;54562;47.620;18.786;2022-08-11T17:43:38;3.20;;;1.50;;
67757;SDS011;54562;47.620;18.786;2022-08-11T17:47:05;5.50;;;1.60;;
67757;SDS011;54562;47.620;18.786;2022-08-11T17:50:33;3.00;;;1.40;;
67757;SDS011;54562;47.620;18.786;2022-08-11T17:53:43;3.30;;;1.60;;
67757;SDS011;54562;47.620;18.786;2022-08-11T17:57:29;3.80;;;1.30;;
67757;SDS011;54562;47.620;18.786;2022-08-11T18:00:56;3.40;;;1.50;;
67757;SDS011;54562;47.620;18.786;2022-08-11T18:04:14;4.40;;;1.50;;
67757;SDS011;54562;47.620;18.786;2022-08-11T18:07:23;3.10;;;1.40;;
67757;SDS011;54562;47.620;18.786;2022-08-11T18:10:50;2.50;;;1.40;;
67757;SDS011;54562;47.620;18.786;2022-08-11T18:14:29;3.40;;;1.40;;
67757;SDS011;54562;47.620;18.786;2022-08-11T18:17:55;3.10;;;1.50;;
67757;SDS011;54562;47.620;18.786;2022-08-11T18:21:23;3.30;;;1.50;;
67757;SDS011;54562;47.620;18.786;2022-08-11T18:25:09;3.30;;;1.40;;
67757;SDS011;54562;47.620;18.786;2022-08-11T18:28:43;2.60;;;1.30;;
67757;SDS011;54562;47.620;18.786;2022-08-11T18:32:11;2.30;;;1.20;;
67757;SDS011;54562;47.620;18.786;2022-08-11T18:35:58;2.90;;;1.40;;
67757;SDS011;54562;47.620;18.786;2022-08-11T18:39:29;3.70;;;1.40;;
67757;SDS011;54562;47.620;18.786;2022-08-11T18:43:03;3.70;;;1.30;;
67757;SDS011;54562;47.620;18.786;2022-08-11T18:46:35;3.50;;;1.50;;
67757;SDS011;54562;47.620;18.786;2022-08-11T18:50:12;3.40;;;1.40;;
67757;SDS011;54562;47.620;18.786;2022-08-11T18:53:46;8.90;;;1.60;;
67757;SDS011;54562;47.620;18.786;2022-08-11T18:57:15;4.40;;;1.50;;
67757;SDS011;54562;47.620;18.786;2022-08-11T19:01:00;5.20;;;1.50;;
67757;SDS011;54562;47.620;18.786;2022-08-11T19:07:53;4.00;;;1.40;;
67757;SDS011;54562;47.620;18.786;2022-08-11T19:11:21;3.20;;;1.50;;
67757;SDS011;54562;47.620;18.786;2022-08-11T19:14:51;3.50;;;1.50;;
67757;SDS011;54562;47.620;18.786;2022-08-11T19:18:21;3.90;;;1.40;;
67757;SDS011;54562;47.620;18.786;2022-08-11T19:21:49;5.80;;;1.50;;
67757;SDS011;54562;47.620;18.786;2022-08-11T19:25:17;2.90;;;1.50;;
67757;SDS011;54562;47.620;18.786;2022-08-11T19:28:46;4.10;;;1.50;;
67757;SDS011;54562;47.620;18.786;2022-08-11T19:32:33;3.80;;;1.60;;
67757;SDS011;54562;47.620;18.786;2022-08-11T19:36:00;4.30;;;1.70;;
67757;SDS011;54562;47.620;18.786;2022-08-11T19:39:27;5.00;;;1.70;;
67757;SDS011;54562;47.620;18.786;2022-08-11T19:42:56;4.90;;;1.60;;
67757;SDS011;54562;47.620;18.786;2022-08-11T19:46:31;3.80;;;1.70;;
67757;SDS011;54562;47.620;18.786;2022-08-11T19:49:59;3.90;;;1.70;;
67757;SDS011;54562;47.620;18.786;2022-08-11T19:53:29;2.80;;;1.50;;
67757;SDS011;54562;47.620;18.786;2022-08-11T19:56:57;4.20;;;1.70;;
67757;SDS011;54562;47.620;18.786;2022-08-11T20:00:26;4.40;;;1.60;;
67757;SDS011;54562;47.620;18.786;2022-08-11T20:03:53;3.80;;;1.60;;
67757;SDS011;54562;47.620;18.786;2022-08-11T20:07:19;4.00;;;1.60;;
67757;SDS011;54562;47.620;18.786;2022-08-11T20:10:47;4.20;;;1.70;;
67757;SDS011;54562;47.620;18.786;2022-08-11T20:14:17;3.50;;;1.40;;
67757;SDS011;54562;47.620;18.786;2022-08-11T20:17:45;4.70;;;1.50;;
67757;SDS011;54562;47.620;18.786;2022-08-11T20:21:12;4.80;;;1.50;;
67757;SDS011;54562;47.620;18.786;2022-08-11T20:24:39;5.20;;;1.60;;
67757;SDS011;54562;47.620;18.786;2022-08-11T20:28:05;4.80;;;1.70;;
67757;SDS011;54562;47.620;18.786;2022-08-11T20:31:33;4.10;;;1.80;;
67757;SDS011;54562;47.620;18.786;2022-08-11T20:35:00;2.70;;;1.30;;
67757;SDS011;54562;47.620;18.786;2022-08-11T20:38:30;3.50;;;1.60;;
67757;SDS011;54562;47.620;18.786;2022-08-11T20:42:00;3.30;;;1.50;;
67757;SDS011;54562;47.620;18.786;2022-08-11T20:45:34;3.60;;;1.60;;
67757;SDS011;54562;47.620;18.786;2022-08-11T20:49:02;3.40;;;1.40;;
67757;SDS011;54562;47.620;18.786;2022-08-11T20:52:29;7.10;;;1.60;;
67757;SDS011;54562;47.620;18.786;2022-08-11T20:55:58;3.40;;;1.40;;
67757;SDS011;54562;47.620;18.786;2022-08-11T20:59:32;3.30;;;1.40;;
67757;SDS011;54562;47.620;18.786;2022-08-11T21:03:01;3.80;;;1.50;;
67757;SDS011;54562;47.620;18.786;2022-08-11T21:10:10;3.90;;;1.50;;
67757;SDS011;54562;47.620;18.786;2022-08-11T21:13:38;3.80;;;1.40;;
67757;SDS011;54562;47.620;18.786;2022-08-11T21:17:08;4.30;;;1.50;;
67757;SDS011;54562;47.620;18.786;2022-08-11T21:20:40;4.00;;;1.50;;
67757;SDS011;54562;47.620;18.786;2022-08-11T21:24:11;5.40;;;1.60;;